Time;durP1;ratioP1;P1;durP2;ratioP2;P2;SDS_P1;SDS_P2;PMS_P1;PMS_P2;Temp;Humidity;BMP_temperature;BMP_pressure;BME280_temperature;BME280_humidity;BME280_pressure;Samples;Min_cycle;Max_cycle;Signal;HPM_P1;HPM_P2
2021/12/23 00:01:25;;;;;;;28.08;12.88;;;;;;;;;;5071772;28;20056;-81
2021/12/23 00:03:51;;;;;;;26.13;13.00;;;;;;;;;;5071202;28;20102;-81
2021/12/23 00:06:17;;;;;;;23.80;12.57;;;;;;;;;;5071718;28;20044;-81
2021/12/23 00:08:43;;;;;;;25.38;13.15;;;;;;;;;;5070977;28;20071;-81
2021/12/23 00:11:09;;;;;;;25.20;13.43;;;;;;;;;;5073251;28;20507;-76
2021/12/23 00:13:36;;;;;;;25.77;13.43;;;;;;;;;;5072768;28;20093;-76
2021/12/23 00:16:06;;;;;;;25.52;13.60;;;;;;;;;;5056636;28;20106;-76
2021/12/23 00:23:48;;;;;;;24.70;13.43;;;;;;;;;;5051897;28;20534;-76
2021/12/23 00:26:15;;;;;;;24.85;13.05;;;;;;;;;;5056540;28;20055;-75
2021/12/23 00:28:41;;;;;;;26.20;13.45;;;;;;;;;;5072644;28;20052;-76
2021/12/23 00:31:07;;;;;;;29.50;13.35;;;;;;;;;;5071470;28;20201;-81
2021/12/23 00:33:35;;;;;;;25.05;13.88;;;;;;;;;;5072419;28;20549;-76
2021/12/23 00:36:03;;;;;;;23.27;12.57;;;;;;;;;;5072719;28;20480;-76
2021/12/23 00:38:33;;;;;;;24.45;12.77;;;;;;;;;;5072182;28;20049;-76
2021/12/23 00:41:01;;;;;;;24.98;12.98;;;;;;;;;;5072623;28;20056;-76
2021/12/23 00:43:28;;;;;;;27.33;13.23;;;;;;;;;;5072652;28;20045;-80
2021/12/23 00:45:54;;;;;;;29.80;13.25;;;;;;;;;;5071000;28;20045;-76
2021/12/23 00:48:21;;;;;;;27.75;14.43;;;;;;;;;;5055884;28;20044;-76
2021/12/23 00:50:47;;;;;;;28.10;12.50;;;;;;;;;;5071949;28;20040;-75
2021/12/23 00:53:18;;;;;;;25.08;13.38;;;;;;;;;;5055764;28;20041;-74
2021/12/23 00:55:47;;;;;;;25.02;11.32;;;;;;;;;;5072190;28;20075;-74
2021/12/23 00:58:13;;;;;;;28.20;13.13;;;;;;;;;;5072113;28;20503;-75
2021/12/23 01:00:39;;;;;;;23.42;12.77;;;;;;;;;;5070399;28;20091;-81
2021/12/23 01:03:06;;;;;;;21.42;11.98;;;;;;;;;;5054626;28;20044;-75
2021/12/23 01:05:32;;;;;;;24.20;11.75;;;;;;;;;;5071966;28;20725;-75
2021/12/23 01:07:58;;;;;;;25.55;13.20;;;;;;;;;;5071959;28;20056;-76
2021/12/23 01:10:25;;;;;;;26.98;13.10;;;;;;;;;;5071849;28;20115;-75
2021/12/23 01:12:56;;;;;;;26.00;12.85;;;;;;;;;;5072829;28;20041;-75
2021/12/23 01:20:25;;;;;;;24.52;13.52;;;;;;;;;;5071463;28;20106;-82
2021/12/23 01:22:52;;;;;;;26.67;13.65;;;;;;;;;;5070325;28;20127;-81
2021/12/23 01:25:18;;;;;;;28.60;13.85;;;;;;;;;;5071220;28;20079;-77
2021/12/23 01:27:44;;;;;;;25.23;13.10;;;;;;;;;;5072225;28;20036;-75
2021/12/23 01:30:11;;;;;;;28.73;13.77;;;;;;;;;;5070756;28;20044;-76
2021/12/23 01:32:37;;;;;;;31.30;13.85;;;;;;;;;;5071086;28;20366;-76
2021/12/23 01:35:03;;;;;;;26.73;12.50;;;;;;;;;;5070866;28;20032;-76
2021/12/23 01:37:29;;;;;;;24.20;13.25;;;;;;;;;;5070753;28;20044;-76
2021/12/23 01:39:55;;;;;;;26.20;13.43;;;;;;;;;;5071333;28;20043;-76
2021/12/23 01:42:21;;;;;;;26.00;13.30;;;;;;;;;;5070493;28;20399;-75
2021/12/23 01:44:47;;;;;;;23.90;11.82;;;;;;;;;;5072258;28;20071;-75
2021/12/23 01:47:13;;;;;;;23.17;12.65;;;;;;;;;;5070793;28;20048;-76
2021/12/23 01:49:39;;;;;;;27.35;14.30;;;;;;;;;;5070512;28;20051;-76
2021/12/23 01:52:06;;;;;;;24.80;13.30;;;;;;;;;;5038205;28;20044;-76
2021/12/23 01:54:32;;;;;;;25.45;13.73;;;;;;;;;;5070468;28;20146;-76
2021/12/23 01:56:58;;;;;;;25.88;12.75;;;;;;;;;;5054339;28;20056;-76
2021/12/23 01:59:24;;;;;;;26.90;13.10;;;;;;;;;;5071838;28;20438;-74
2021/12/23 02:01:50;;;;;;;25.67;13.73;;;;;;;;;;5070524;28;20390;-80
2021/12/23 02:04:16;;;;;;;22.85;12.75;;;;;;;;;;5069563;28;20380;-80
2021/12/23 02:06:43;;;;;;;25.42;13.38;;;;;;;;;;5069109;28;20101;-80
2021/12/23 02:09:09;;;;;;;25.83;13.38;;;;;;;;;;5070125;28;20097;-76
2021/12/23 02:11:35;;;;;;;29.02;13.38;;;;;;;;;;5069591;28;20049;-76
2021/12/23 02:14:01;;;;;;;25.38;14.00;;;;;;;;;;5053443;28;20119;-76
2021/12/23 02:16:27;;;;;;;26.10;13.38;;;;;;;;;;5070372;28;20044;-76
2021/12/23 02:18:53;;;;;;;30.65;13.80;;;;;;;;;;5070281;28;20036;-76
2021/12/23 02:21:19;;;;;;;25.38;12.95;;;;;;;;;;5053860;28;20048;-76
2021/12/23 02:23:45;;;;;;;27.25;13.35;;;;;;;;;;5053600;28;20048;-76
2021/12/23 02:26:11;;;;;;;27.52;13.63;;;;;;;;;;5069918;28;20044;-76
2021/12/23 02:28:38;;;;;;;27.85;14.05;;;;;;;;;;5070801;28;20054;-81
2021/12/23 02:31:04;;;;;;;27.35;13.90;;;;;;;;;;5068472;28;20041;-81
2021/12/23 02:33:30;;;;;;;27.77;13.68;;;;;;;;;;5035758;28;20070;-76
2021/12/23 02:35:58;;;;;;;25.25;13.68;;;;;;;;;;5069891;28;20396;-76
2021/12/23 02:38:25;;;;;;;24.73;13.60;;;;;;;;;;5059000;28;20041;-81
2021/12/23 02:40:51;;;;;;;32.30;13.63;;;;;;;;;;5048430;28;21119;-81
2021/12/23 02:43:22;;;;;;;25.60;14.02;;;;;;;;;;5050124;28;20033;-80
2021/12/23 02:45:49;;;;;;;26.13;14.27;;;;;;;;;;5049519;28;20048;-81
2021/12/23 02:48:21;;;;;;;26.33;13.98;;;;;;;;;;5048806;28;20124;-81
2021/12/23 02:50:49;;;;;;;29.33;14.13;;;;;;;;;;5048385;28;20048;-81
2021/12/23 02:53:15;;;;;;;28.83;13.82;;;;;;;;;;5049507;28;20524;-76
2021/12/23 02:55:41;;;;;;;29.13;13.13;;;;;;;;;;5049505;28;20041;-76
2021/12/23 02:58:09;;;;;;;29.13;13.98;;;;;;;;;;5049863;28;20110;-76
2021/12/23 03:00:36;;;;;;;26.90;12.85;;;;;;;;;;5047723;28;20037;-80
2021/12/23 03:03:02;;;;;;;26.30;14.68;;;;;;;;;;5068919;28;20540;-75
2021/12/23 03:05:28;;;;;;;27.40;12.85;;;;;;;;;;5051703;28;20041;-81
2021/12/23 03:07:54;;;;;;;26.50;14.65;;;;;;;;;;5067950;28;20098;-81
2021/12/23 03:10:23;;;;;;;27.02;13.95;;;;;;;;;;5068494;28;20338;-81
2021/12/23 03:12:49;;;;;;;30.70;14.88;;;;;;;;;;5068053;28;20048;-80
2021/12/23 03:15:16;;;;;;;26.92;14.38;;;;;;;;;;5051264;28;20124;-80
2021/12/23 03:17:42;;;;;;;26.90;14.98;;;;;;;;;;5068672;28;20158;-76
2021/12/23 03:20:08;;;;;;;24.67;12.52;;;;;;;;;;5069197;28;20054;-76
2021/12/23 03:22:34;;;;;;;27.23;14.40;;;;;;;;;;5052233;28;20505;-76
2021/12/23 03:25:00;;;;;;;27.90;13.38;;;;;;;;;;5070695;28;20037;-76
2021/12/23 03:27:26;;;;;;;27.05;14.88;;;;;;;;;;5069302;28;20051;-76
2021/12/23 03:29:54;;;;;;;28.02;13.80;;;;;;;;;;5070070;28;20748;-75
2021/12/23 03:32:21;;;;;;;32.38;15.50;;;;;;;;;;5070609;28;20052;-75
2021/12/23 03:34:47;;;;;;;27.83;15.25;;;;;;;;;;5069264;28;20040;-80
2021/12/23 03:37:14;;;;;;;29.50;14.18;;;;;;;;;;5067358;28;20045;-80
2021/12/23 03:39:40;;;;;;;32.17;15.68;;;;;;;;;;5067538;28;20484;-80
2021/12/23 03:42:06;;;;;;;27.95;14.10;;;;;;;;;;5067585;28;20047;-81
2021/12/23 03:44:32;;;;;;;32.13;15.52;;;;;;;;;;5067019;28;20474;-82
2021/12/23 03:46:58;;;;;;;30.42;15.10;;;;;;;;;;5068357;28;20048;-76
2021/12/23 03:49:24;;;;;;;30.98;14.85;;;;;;;;;;5052531;28;20440;-76
2021/12/23 03:51:50;;;;;;;29.38;14.82;;;;;;;;;;5051752;28;20113;-76
2021/12/23 03:54:16;;;;;;;32.28;16.33;;;;;;;;;;5068941;28;20499;-76
2021/12/23 03:56:44;;;;;;;29.65;14.93;;;;;;;;;;5051261;28;20044;-76
2021/12/23 03:59:10;;;;;;;33.17;16.10;;;;;;;;;;5051952;28;20135;-76
2021/12/23 04:01:36;;;;;;;30.42;15.43;;;;;;;;;;5068186;28;20369;-76
2021/12/23 04:04:03;;;;;;;28.00;15.25;;;;;;;;;;5068269;28;20072;-76
2021/12/23 04:06:29;;;;;;;32.65;15.80;;;;;;;;;;5054506;28;20511;-76
2021/12/23 04:08:55;;;;;;;29.00;15.43;;;;;;;;;;5054538;28;20050;-80
2021/12/23 04:11:22;;;;;;;30.65;15.27;;;;;;;;;;5038011;28;20040;-79
2021/12/23 04:13:48;;;;;;;31.70;16.05;;;;;;;;;;5055021;28;20717;-76
2021/12/23 04:16:14;;;;;;;27.10;14.77;;;;;;;;;;5071600;28;20193;-76
2021/12/23 04:18:44;;;;;;;28.90;15.00;;;;;;;;;;5071239;28;20037;-76
2021/12/23 04:21:10;;;;;;;29.75;15.20;;;;;;;;;;5071788;28;20403;-76
2021/12/23 04:23:36;;;;;;;28.77;15.35;;;;;;;;;;5071081;28;20072;-76
2021/12/23 04:26:03;;;;;;;28.85;14.95;;;;;;;;;;5071352;28;20049;-76
2021/12/23 04:28:29;;;;;;;30.58;15.23;;;;;;;;;;5071207;28;20515;-76
2021/12/23 04:30:56;;;;;;;29.02;14.48;;;;;;;;;;5070953;28;20036;-76
2021/12/23 04:33:22;;;;;;;31.98;16.27;;;;;;;;;;5054501;28;20130;-76
2021/12/23 04:35:48;;;;;;;31.77;15.40;;;;;;;;;;5071032;28;20668;-76
2021/12/23 04:38:14;;;;;;;30.95;15.82;;;;;;;;;;5071103;28;20067;-76
2021/12/23 04:40:40;;;;;;;33.00;16.40;;;;;;;;;;5054161;28;20067;-77
2021/12/23 04:43:08;;;;;;;33.38;15.45;;;;;;;;;;5070962;28;20270;-76
2021/12/23 04:45:35;;;;;;;29.55;15.30;;;;;;;;;;5071013;28;20467;-77
2021/12/23 04:48:01;;;;;;;29.10;15.10;;;;;;;;;;5070828;28;20044;-76
2021/12/23 04:50:27;;;;;;;33.45;16.50;;;;;;;;;;5072613;28;20033;-79
2021/12/23 04:52:53;;;;;;;33.40;15.98;;;;;;;;;;5070479;28;20041;-79
2021/12/23 04:55:20;;;;;;;30.58;15.90;;;;;;;;;;5070589;28;20115;-79
2021/12/23 04:57:46;;;;;;;33.45;15.95;;;;;;;;;;5053056;28;20085;-79
2021/12/23 05:00:14;;;;;;;36.33;17.08;;;;;;;;;;5070401;28;20054;-76
2021/12/23 05:02:40;;;;;;;36.05;16.58;;;;;;;;;;5040635;28;20089;-76
2021/12/23 05:05:07;;;;;;;30.98;16.15;;;;;;;;;;5069991;28;20496;-79
2021/12/23 05:07:33;;;;;;;33.72;17.48;;;;;;;;;;5070194;28;20396;-79
2021/12/23 05:09:59;;;;;;;31.63;16.13;;;;;;;;;;5071848;28;20127;-78
2021/12/23 05:12:25;;;;;;;34.40;15.93;;;;;;;;;;5071551;28;20033;-76
2021/12/23 05:14:51;;;;;;;35.60;17.02;;;;;;;;;;5070022;28;20126;-79
2021/12/23 05:17:17;;;;;;;33.20;16.45;;;;;;;;;;5070159;28;20041;-76
2021/12/23 05:19:43;;;;;;;32.97;16.50;;;;;;;;;;5070426;28;20082;-76
2021/12/23 05:22:10;;;;;;;32.58;16.65;;;;;;;;;;5071791;28;20040;-76
2021/12/23 05:24:36;;;;;;;31.23;16.02;;;;;;;;;;5069990;28;20045;-75
2021/12/23 05:27:02;;;;;;;31.83;16.88;;;;;;;;;;5070127;28;20266;-77
2021/12/23 05:29:28;;;;;;;32.03;16.20;;;;;;;;;;5071395;28;20547;-79
2021/12/23 05:31:54;;;;;;;29.58;15.32;;;;;;;;;;5069450;28;20051;-79
2021/12/23 05:34:20;;;;;;;30.48;15.23;;;;;;;;;;5069998;28;20090;-79
2021/12/23 05:36:46;;;;;;;29.25;14.52;;;;;;;;;;5069571;28;20051;-79
2021/12/23 05:39:12;;;;;;;35.05;17.02;;;;;;;;;;5071096;28;20076;-76
2021/12/23 05:41:39;;;;;;;31.80;15.20;;;;;;;;;;5070002;28;20490;-76
2021/12/23 05:44:05;;;;;;;30.45;16.20;;;;;;;;;;5069996;28;20083;-76
2021/12/23 05:46:31;;;;;;;32.30;15.07;;;;;;;;;;5036636;28;20051;-79
2021/12/23 05:48:57;;;;;;;33.10;15.80;;;;;;;;;;5069596;28;20055;-76
2021/12/23 05:51:23;;;;;;;31.55;16.10;;;;;;;;;;5053414;28;20080;-76
2021/12/23 05:53:49;;;;;;;33.90;16.30;;;;;;;;;;5052969;28;20070;-76
2021/12/23 05:56:15;;;;;;;31.27;15.77;;;;;;;;;;5070937;28;20045;-76
2021/12/23 05:58:42;;;;;;;30.20;16.02;;;;;;;;;;5069807;28;20446;-79
2021/12/23 06:01:08;;;;;;;31.95;16.02;;;;;;;;;;5068711;28;20097;-79
2021/12/23 06:03:34;;;;;;;36.00;17.65;;;;;;;;;;5068439;28;20163;-79
2021/12/23 06:06:00;;;;;;;31.35;15.90;;;;;;;;;;5069392;28;20040;-79
2021/12/23 06:08:26;;;;;;;33.80;16.45;;;;;;;;;;5069294;28;20055;-79
2021/12/23 06:10:52;;;;;;;31.75;15.63;;;;;;;;;;5069070;28;20044;-78
2021/12/23 06:13:18;;;;;;;32.72;15.63;;;;;;;;;;5069657;28;20440;-76
2021/12/23 06:15:44;;;;;;;30.75;16.27;;;;;;;;;;5052368;28;20075;-76
2021/12/23 06:18:10;;;;;;;35.17;16.98;;;;;;;;;;5069460;28;20052;-76
2021/12/23 06:20:36;;;;;;;31.60;15.32;;;;;;;;;;5068983;28;20485;-76
2021/12/23 06:23:03;;;;;;;31.70;16.15;;;;;;;;;;5052594;28;20397;-76
2021/12/23 06:25:30;;;;;;;30.85;15.00;;;;;;;;;;5069252;28;20044;-76
2021/12/23 06:27:56;;;;;;;31.35;16.50;;;;;;;;;;5068450;28;20040;-76
2021/12/23 06:30:22;;;;;;;32.00;16.23;;;;;;;;;;5068644;28;20052;-78
2021/12/23 06:32:50;;;;;;;30.77;16.90;;;;;;;;;;5051980;28;20052;-78
2021/12/23 06:35:17;;;;;;;31.50;15.98;;;;;;;;;;5069050;28;20072;-78
2021/12/23 06:37:44;;;;;;;30.17;15.73;;;;;;;;;;5051670;28;20708;-79
2021/12/23 06:40:10;;;;;;;32.85;16.60;;;;;;;;;;5069909;28;20090;-78
2021/12/23 06:42:36;;;;;;;32.72;16.85;;;;;;;;;;5068366;28;20041;-76
2021/12/23 06:45:04;;;;;;;29.42;15.73;;;;;;;;;;5052771;28;20507;-76
2021/12/23 06:47:30;;;;;;;34.03;16.25;;;;;;;;;;5068946;28;20052;-76
2021/12/23 06:49:56;;;;;;;31.60;16.90;;;;;;;;;;5068413;28;20036;-76
2021/12/23 06:52:22;;;;;;;32.08;16.85;;;;;;;;;;5068757;28;20126;-79
2021/12/23 06:54:52;;;;;;;32.28;17.17;;;;;;;;;;5051398;28;20055;-79
2021/12/23 06:57:18;;;;;;;33.15;16.85;;;;;;;;;;5068592;28;20194;-78
2021/12/23 06:59:44;;;;;;;35.95;16.60;;;;;;;;;;5051329;28;20060;-79
2021/12/23 07:02:11;;;;;;;31.60;15.55;;;;;;;;;;5068435;28;20048;-79
2021/12/23 07:04:39;;;;;;;31.48;15.95;;;;;;;;;;5067912;28;20174;-79
2021/12/23 07:07:09;;;;;;;30.70;16.33;;;;;;;;;;5068829;28;20123;-78
2021/12/23 07:09:36;;;;;;;30.65;14.20;;;;;;;;;;5068475;28;20058;-77
2021/12/23 07:12:03;;;;;;;34.70;16.85;;;;;;;;;;5068828;28;20047;-76
2021/12/23 07:14:29;;;;;;;32.45;16.35;;;;;;;;;;5070083;28;20068;-76
2021/12/23 07:16:55;;;;;;;33.28;16.67;;;;;;;;;;5068429;28;20135;-76
2021/12/23 07:19:21;;;;;;;34.25;17.42;;;;;;;;;;5068598;28;20055;-76
2021/12/23 07:21:48;;;;;;;34.20;16.85;;;;;;;;;;5068438;28;20037;-76
2021/12/23 07:24:14;;;;;;;34.22;17.73;;;;;;;;;;5051998;28;20420;-76
2021/12/23 07:26:40;;;;;;;31.48;17.45;;;;;;;;;;5068230;28;20051;-76
2021/12/23 07:29:06;;;;;;;37.13;18.42;;;;;;;;;;5068712;28;20106;-76
2021/12/23 07:31:32;;;;;;;33.50;17.70;;;;;;;;;;5031706;28;20127;-76
2021/12/23 07:33:58;;;;;;;33.38;17.13;;;;;;;;;;5031662;28;20048;-78
2021/12/23 07:36:25;;;;;;;33.08;16.90;;;;;;;;;;5031330;28;20048;-79
2021/12/23 07:38:51;;;;;;;37.42;18.83;;;;;;;;;;5049042;28;20041;-79
2021/12/23 07:41:17;;;;;;;36.92;19.35;;;;;;;;;;5051912;28;20037;-79
2021/12/23 07:43:56;;;;;;;38.05;18.15;;;;;;;;;;5051557;28;20073;-79
2021/12/23 07:46:22;;;;;;;37.35;17.92;;;;;;;;;;5035515;28;20103;-76
2021/12/23 07:48:48;;;;;;;36.22;18.55;;;;;;;;;;5051984;28;20052;-76
2021/12/23 07:51:14;;;;;;;38.30;18.52;;;;;;;;;;5052335;28;20044;-79
2021/12/23 07:53:40;;;;;;;40.05;18.50;;;;;;;;;;5035023;28;20044;-79
2021/12/23 07:56:06;;;;;;;40.47;20.15;;;;;;;;;;5053138;28;20060;-79
2021/12/23 07:58:32;;;;;;;37.78;20.05;;;;;;;;;;5051904;28;20566;-76
2021/12/23 08:00:59;;;;;;;40.65;20.88;;;;;;;;;;5051894;28;20068;-76
2021/12/23 08:03:25;;;;;;;46.45;22.40;;;;;;;;;;5035402;28;20044;-75
2021/12/23 08:05:54;;;;;;;44.67;21.38;;;;;;;;;;5051042;28;20037;-79
2021/12/23 08:08:20;;;;;;;46.67;21.88;;;;;;;;;;5051882;28;20488;-79
2021/12/23 08:10:48;;;;;;;48.80;22.80;;;;;;;;;;5051276;28;20094;-79
2021/12/23 08:13:15;;;;;;;45.90;20.60;;;;;;;;;;5051556;28;20049;-78
2021/12/23 08:15:41;;;;;;;50.63;22.80;;;;;;;;;;5051038;28;20044;-76
2021/12/23 08:18:07;;;;;;;51.75;24.20;;;;;;;;;;5035570;28;20048;-76
2021/12/23 08:20:33;;;;;;;47.40;22.92;;;;;;;;;;5051223;28;20099;-78
2021/12/23 08:22:59;;;;;;;48.42;22.02;;;;;;;;;;5051505;28;20041;-79
2021/12/23 08:25:26;;;;;;;49.30;23.92;;;;;;;;;;5051212;28;20128;-79
2021/12/23 08:27:52;;;;;;;52.17;22.92;;;;;;;;;;5051297;28;20048;-79
2021/12/23 08:30:19;;;;;;;50.10;23.95;;;;;;;;;;5037323;28;20725;-76
2021/12/23 08:32:46;;;;;;;51.88;24.02;;;;;;;;;;5034669;28;20120;-76
2021/12/23 08:35:12;;;;;;;55.45;23.80;;;;;;;;;;5051405;28;20488;-76
2021/12/23 08:37:40;;;;;;;55.67;24.58;;;;;;;;;;5050997;28;20059;-76
2021/12/23 08:40:08;;;;;;;56.03;25.27;;;;;;;;;;5034655;28;20045;-79
2021/12/23 08:42:34;;;;;;;57.15;25.70;;;;;;;;;;5035151;28;20437;-79
2021/12/23 08:45:00;;;;;;;55.83;25.45;;;;;;;;;;5034322;28;20041;-75
2021/12/23 08:47:27;;;;;;;58.30;26.80;;;;;;;;;;5054614;28;20098;-77
2021/12/23 08:49:53;;;;;;;56.20;25.13;;;;;;;;;;5072241;28;20066;-75
2021/12/23 08:52:20;;;;;;;59.35;26.30;;;;;;;;;;5072426;28;20032;-75
2021/12/23 08:54:46;;;;;;;61.03;25.85;;;;;;;;;;5072116;28;20076;-75
2021/12/23 08:57:12;;;;;;;62.47;26.85;;;;;;;;;;5070770;28;20083;-76
2021/12/23 08:59:38;;;;;;;65.32;26.65;;;;;;;;;;5070245;28;20076;-76
2021/12/23 09:02:05;;;;;;;60.67;25.20;;;;;;;;;;5071990;28;20044;-75
2021/12/23 09:04:31;;;;;;;63.85;26.80;;;;;;;;;;5070539;28;20115;-76
2021/12/23 09:06:57;;;;;;;61.58;25.95;;;;;;;;;;5070216;28;20048;-75
2021/12/23 09:09:24;;;;;;;67.95;27.63;;;;;;;;;;5071181;28;20052;-76
2021/12/23 09:11:51;;;;;;;66.65;26.85;;;;;;;;;;5053862;28;20040;-79
2021/12/23 09:14:17;;;;;;;64.85;27.70;;;;;;;;;;5054215;28;20068;-79
2021/12/23 09:16:43;;;;;;;66.53;27.13;;;;;;;;;;5070273;28;20041;-80
2021/12/23 09:19:09;;;;;;;69.05;27.42;;;;;;;;;;5071502;28;20107;-81
2021/12/23 09:21:36;;;;;;;65.18;26.80;;;;;;;;;;5072140;28;20048;-79
2021/12/23 09:24:03;;;;;;;69.70;25.60;;;;;;;;;;5070236;28;20045;-79
2021/12/23 09:26:33;;;;;;;69.63;26.70;;;;;;;;;;5053759;28;20174;-79
2021/12/23 09:34:10;;;;;;;71.88;28.02;;;;;;;;;;5071689;28;20487;-74
2021/12/23 09:36:38;;;;;;;68.75;27.23;;;;;;;;;;5069912;28;20047;-79
2021/12/23 09:39:05;;;;;;;64.70;27.05;;;;;;;;;;5071848;28;20048;-80
2021/12/23 09:41:41;;;;;;;69.82;27.77;;;;;;;;;;5070018;28;20044;-79
2021/12/23 09:44:08;;;;;;;67.82;27.75;;;;;;;;;;5069819;28;20083;-79
2021/12/23 09:46:35;;;;;;;71.57;28.75;;;;;;;;;;5053651;28;20423;-80
2021/12/23 09:49:02;;;;;;;72.88;28.77;;;;;;;;;;5069381;28;20472;-80
2021/12/23 09:51:29;;;;;;;73.13;30.60;;;;;;;;;;5068997;28;20393;-80
2021/12/23 09:53:57;;;;;;;70.43;28.45;;;;;;;;;;5086074;28;20036;-80
2021/12/23 09:56:26;;;;;;;69.38;28.63;;;;;;;;;;5069174;28;20484;-80
2021/12/23 09:58:52;;;;;;;73.32;27.75;;;;;;;;;;5069078;28;20057;-80
2021/12/23 10:01:18;;;;;;;69.68;27.27;;;;;;;;;;5052735;28;20051;-80
2021/12/23 10:03:44;;;;;;;72.60;28.02;;;;;;;;;;5068253;28;20124;-80
2021/12/23 10:06:11;;;;;;;73.85;28.33;;;;;;;;;;5068844;28;20488;-80
2021/12/23 10:08:39;;;;;;;72.85;28.05;;;;;;;;;;5052979;28;20044;-80
2021/12/23 10:11:16;;;;;;;69.95;26.50;;;;;;;;;;5070614;28;20061;-80
2021/12/23 10:31:04;;;;;;;78.53;29.85;;;;;;;;;;5037532;28;20041;-80
2021/12/23 10:33:50;;;;;;;66.63;26.85;;;;;;;;;;5082786;28;20396;-80
2021/12/23 10:39:00;;;;;;;78.88;29.52;;;;;;;;;;5082371;28;20577;-80
2021/12/23 10:41:28;;;;;;;72.60;28.38;;;;;;;;;;5032128;28;20040;-80
2021/12/23 10:43:54;;;;;;;72.00;29.73;;;;;;;;;;5049875;28;20477;-80
2021/12/23 10:46:22;;;;;;;79.35;29.60;;;;;;;;;;5082350;28;20496;-80
2021/12/23 10:49:48;;;;;;;77.60;27.85;;;;;;;;;;5081748;28;20053;-80
2021/12/23 11:00:18;;;;;;;76.55;29.08;;;;;;;;;;5082140;28;20057;-75
2021/12/23 11:03:05;;;;;;;77.78;29.38;;;;;;;;;;5032131;28;20123;-75
2021/12/23 11:05:36;;;;;;;68.07;26.35;;;;;;;;;;5048746;28;20052;-75
2021/12/23 11:08:17;;;;;;;75.68;30.10;;;;;;;;;;5032002;28;20087;-74
2021/12/23 11:36:06;;;;;;;70.22;27.27;;;;;;;;;;5073512;28;20510;-80
2021/12/23 11:43:54;;;;;;;73.15;27.35;;;;;;;;;;5073360;28;20045;-75
2021/12/23 11:46:22;;;;;;;70.05;27.20;;;;;;;;;;5072240;28;20048;-75
2021/12/23 11:48:52;;;;;;;72.85;28.70;;;;;;;;;;5071531;28;20040;-74
2021/12/23 11:51:29;;;;;;;69.78;26.00;;;;;;;;;;5072089;28;20059;-75
2021/12/23 11:53:56;;;;;;;70.60;26.95;;;;;;;;;;5071741;28;20051;-73
2021/12/23 11:56:23;;;;;;;69.85;27.05;;;;;;;;;;5071975;28;20082;-75
2021/12/23 11:58:49;;;;;;;70.53;28.95;;;;;;;;;;5071434;28;20522;-80
2021/12/23 12:01:24;;;;;;;70.90;27.05;;;;;;;;;;5072000;28;20052;-75
2021/12/23 12:04:02;;;;;;;72.90;28.83;;;;;;;;;;5071555;28;20040;-74
2021/12/23 12:06:31;;;;;;;68.90;26.80;;;;;;;;;;5055372;28;20056;-75
2021/12/23 12:09:17;;;;;;;75.07;29.30;;;;;;;;;;5071478;28;20182;-80
2021/12/23 12:11:49;;;;;;;74.97;26.90;;;;;;;;;;5071917;28;20048;-80
2021/12/23 12:14:35;;;;;;;74.40;27.35;;;;;;;;;;5071689;28;20074;-79
2021/12/23 12:17:20;;;;;;;55.88;20.85;;;;;;;;;;5071536;28;20953;-80
2021/12/23 12:19:53;;;;;;;71.32;27.60;;;;;;;;;;5055204;28;20435;-80
2021/12/23 12:22:38;;;;;;;70.85;27.75;;;;;;;;;;5054740;28;20040;-79
2021/12/23 12:25:04;;;;;;;73.80;28.10;;;;;;;;;;5054486;28;20440;-75
2021/12/23 12:27:31;;;;;;;70.32;26.02;;;;;;;;;;5071633;28;20399;-75
2021/12/23 12:30:07;;;;;;;72.95;27.55;;;;;;;;;;5054387;28;20040;-76
2021/12/23 12:32:35;;;;;;;67.07;27.23;;;;;;;;;;5071155;28;20377;-74
2021/12/23 12:35:10;;;;;;;77.80;30.05;;;;;;;;;;5070394;28;20032;-75
2021/12/23 12:37:43;;;;;;;58.95;22.38;;;;;;;;;;5070687;28;20484;-75
2021/12/23 12:40:10;;;;;;;70.38;27.17;;;;;;;;;;5071816;28;20036;-80
2021/12/23 12:42:41;;;;;;;64.65;24.05;;;;;;;;;;5071099;28;20079;-80
2021/12/23 12:45:15;;;;;;;72.65;27.73;;;;;;;;;;5072483;28;20110;-79
2021/12/23 12:47:50;;;;;;;68.20;26.58;;;;;;;;;;5070777;28;20083;-80
2021/12/23 12:50:19;;;;;;;72.32;27.83;;;;;;;;;;5072265;28;20048;-80
2021/12/23 12:52:46;;;;;;;69.25;27.33;;;;;;;;;;5071301;28;20575;-80
2021/12/23 12:55:15;;;;;;;79.70;28.73;;;;;;;;;;5071456;28;20064;-75
2021/12/23 12:57:46;;;;;;;75.80;27.38;;;;;;;;;;5053767;28;20079;-75
2021/12/23 13:00:20;;;;;;;67.38;27.85;;;;;;;;;;5071383;28;20063;-77
2021/12/23 13:02:55;;;;;;;74.20;27.52;;;;;;;;;;5074787;28;20039;-80
2021/12/23 13:05:28;;;;;;;73.75;27.45;;;;;;;;;;5094882;28;20048;-80
2021/12/23 13:07:54;;;;;;;72.63;27.35;;;;;;;;;;5083357;28;20155;-75
2021/12/23 13:10:27;;;;;;;74.07;28.50;;;;;;;;;;5071493;28;20488;-76
2021/12/23 13:12:58;;;;;;;68.53;27.35;;;;;;;;;;5070318;28;20094;-75
2021/12/23 13:15:33;;;;;;;71.57;27.05;;;;;;;;;;5072212;28;20036;-80
2021/12/23 13:18:02;;;;;;;70.85;27.50;;;;;;;;;;5054470;28;20084;-80
2021/12/23 13:20:42;;;;;;;76.25;28.65;;;;;;;;;;5070683;28;20551;-76
2021/12/23 13:23:14;;;;;;;70.10;27.60;;;;;;;;;;5069995;28;20131;-76
2021/12/23 13:25:47;;;;;;;72.15;27.35;;;;;;;;;;5069759;28;20045;-80
2021/12/23 13:28:21;;;;;;;68.88;26.52;;;;;;;;;;5070389;28;20127;-80
2021/12/23 13:30:47;;;;;;;72.07;28.35;;;;;;;;;;5069635;28;20143;-80
2021/12/23 13:33:13;;;;;;;69.35;28.00;;;;;;;;;;5071461;28;20033;-80
2021/12/23 13:35:39;;;;;;;71.15;27.10;;;;;;;;;;5053919;28;20124;-80
2021/12/23 13:38:05;;;;;;;73.43;27.67;;;;;;;;;;5070325;28;20044;-80
2021/12/23 13:40:33;;;;;;;66.03;26.73;;;;;;;;;;5052885;28;20048;-80
2021/12/23 13:42:59;;;;;;;72.65;27.33;;;;;;;;;;5069756;28;20074;-80
2021/12/23 13:45:26;;;;;;;72.55;28.00;;;;;;;;;;5053431;28;20460;-80
2021/12/23 13:47:54;;;;;;;69.18;26.98;;;;;;;;;;5069871;28;20442;-80
2021/12/23 13:50:21;;;;;;;66.50;27.63;;;;;;;;;;5071077;28;20051;-76
2021/12/23 13:52:49;;;;;;;71.03;27.52;;;;;;;;;;5036669;28;20044;-80
2021/12/23 13:55:35;;;;;;;71.30;27.17;;;;;;;;;;5069517;28;20102;-77
2021/12/23 13:58:01;;;;;;;70.82;27.88;;;;;;;;;;5052280;28;20055;-77
2021/12/23 14:00:29;;;;;;;69.60;27.25;;;;;;;;;;5052333;28;20052;-77
2021/12/23 14:03:07;;;;;;;76.28;27.52;;;;;;;;;;5069483;28;20147;-79
2021/12/23 14:05:39;;;;;;;66.68;25.60;;;;;;;;;;5069790;28;20235;-80
2021/12/23 14:08:05;;;;;;;69.65;26.55;;;;;;;;;;5069452;28;20055;-80
2021/12/23 14:10:33;;;;;;;66.50;25.98;;;;;;;;;;5069171;28;20463;-80
2021/12/23 14:13:04;;;;;;;71.13;26.63;;;;;;;;;;5069813;28;20097;-80
2021/12/23 14:15:30;;;;;;;73.03;27.52;;;;;;;;;;5070573;28;20086;-80
2021/12/23 14:18:02;;;;;;;68.05;26.80;;;;;;;;;;5068964;28;20052;-80
2021/12/23 14:23:19;;;;;;;76.20;26.83;;;;;;;;;;5069470;28;20423;-80
2021/12/23 14:25:51;;;;;;;68.47;26.80;;;;;;;;;;5051874;28;20082;-80
2021/12/23 14:28:20;;;;;;;74.53;27.30;;;;;;;;;;5069227;28;20045;-80
2021/12/23 14:30:46;;;;;;;70.97;27.67;;;;;;;;;;5069593;28;20040;-77
2021/12/23 14:33:14;;;;;;;68.53;26.42;;;;;;;;;;5052824;28;20040;-77
2021/12/23 14:35:40;;;;;;;74.10;26.52;;;;;;;;;;5070019;28;20051;-77
2021/12/23 14:38:06;;;;;;;79.25;28.23;;;;;;;;;;5068688;28;20052;-76
2021/12/23 14:40:32;;;;;;;69.78;27.50;;;;;;;;;;5068918;28;20040;-80
2021/12/23 14:43:03;;;;;;;75.18;26.55;;;;;;;;;;5068068;28;20503;-77
2021/12/23 14:45:29;;;;;;;71.32;26.73;;;;;;;;;;5068326;28;20045;-77
2021/12/23 14:48:09;;;;;;;78.30;27.60;;;;;;;;;;5069224;28;20047;-77
2021/12/23 14:50:50;;;;;;;72.13;28.15;;;;;;;;;;5069032;28;20706;-76
2021/12/23 14:53:18;;;;;;;74.28;27.15;;;;;;;;;;5051294;28;20082;-77
2021/12/23 14:55:52;;;;;;;69.85;26.33;;;;;;;;;;5067456;28;20045;-77
2021/12/23 14:58:19;;;;;;;69.57;27.52;;;;;;;;;;5051885;28;20045;-80
2021/12/23 15:00:46;;;;;;;76.60;27.92;;;;;;;;;;5067924;28;20091;-80
2021/12/23 15:03:12;;;;;;;77.22;28.55;;;;;;;;;;5070293;28;20063;-80
2021/12/23 15:05:39;;;;;;;74.05;26.60;;;;;;;;;;5069266;28;20045;-80
2021/12/23 15:08:17;;;;;;;77.90;27.63;;;;;;;;;;5051687;28;20480;-77
2021/12/23 15:10:44;;;;;;;72.93;26.50;;;;;;;;;;5068124;28;20048;-78
2021/12/23 15:13:21;;;;;;;77.88;28.38;;;;;;;;;;5067983;28;20043;-77
2021/12/23 15:15:55;;;;;;;75.20;27.40;;;;;;;;;;5067544;28;20079;-77
2021/12/23 15:18:34;;;;;;;81.63;29.15;;;;;;;;;;5068291;28;20561;-77
2021/12/23 15:21:04;;;;;;;77.95;27.77;;;;;;;;;;5051055;28;20045;-77
2021/12/23 15:23:40;;;;;;;79.10;27.92;;;;;;;;;;5068305;28;20048;-77
2021/12/23 15:26:26;;;;;;;79.45;28.40;;;;;;;;;;5067911;28;20048;-77
2021/12/23 15:29:04;;;;;;;75.13;28.45;;;;;;;;;;5041002;28;20439;-77
2021/12/23 15:31:30;;;;;;;79.90;28.33;;;;;;;;;;5052414;28;20045;-77
2021/12/23 15:33:57;;;;;;;75.47;27.83;;;;;;;;;;5067800;28;20053;-77
2021/12/23 15:36:23;;;;;;;77.78;28.65;;;;;;;;;;5051762;28;20446;-77
2021/12/23 15:38:49;;;;;;;80.30;29.23;;;;;;;;;;5068031;28;20080;-80